createdAt,value
2023-03-05T00:00:41.688Z,10.27
2023-03-05T00:03:20.895Z,10.43
2023-03-05T00:05:50.374Z,10.98
2023-03-05T00:08:19.886Z,11.75
2023-03-05T00:10:46.499Z,10.55
2023-03-05T00:13:18.783Z,10.85
2023-03-05T00:15:45.390Z,10.73
2023-03-05T00:18:39.166Z,11.48
2023-03-05T00:21:36.234Z,10.95
2023-03-05T00:24:11.530Z,10.25
2023-03-05T00:26:45.305Z,10.60
2023-03-05T00:29:33.698Z,11.07
2023-03-05T00:32:00.317Z,10.55
2023-03-05T00:34:27.048Z,9.63
2023-03-05T00:36:56.651Z,9.48
2023-03-05T00:39:24.246Z,9.77
2023-03-05T00:41:53.731Z,9.38
2023-03-05T00:44:20.470Z,9.80
2023-03-05T00:46:48.489Z,9.60
2023-03-05T00:49:32.321Z,9.55
2023-03-05T00:52:06.154Z,9.30
2023-03-05T00:54:38.485Z,8.70
2023-03-05T00:57:08.002Z,9.52
2023-03-05T00:59:37.362Z,8.65
2023-03-05T01:02:04.083Z,9.50
2023-03-05T01:04:30.806Z,9.10
2023-03-05T01:07:06.262Z,8.50
2023-03-05T01:09:35.588Z,8.95
2023-03-05T01:12:02.164Z,8.98
2023-03-05T01:14:28.840Z,9.32
2023-03-05T01:17:12.019Z,8.75
2023-03-05T01:19:40.958Z,8.18
2023-03-05T01:22:18.523Z,8.80
2023-03-05T01:24:46.011Z,8.77
2023-03-05T01:27:30.517Z,9.85
2023-03-05T01:29:59.370Z,8.60
2023-03-05T01:32:28.721Z,8.77
2023-03-05T01:34:57.491Z,8.95
2023-03-05T01:37:27.016Z,9.30
2023-03-05T01:39:53.617Z,9.68
2023-03-05T01:42:22.832Z,10.18
2023-03-05T01:45:12.096Z,9.30
2023-03-05T01:47:44.431Z,9.68
2023-03-05T01:50:16.177Z,9.82
2023-03-05T01:53:17.244Z,10.52
2023-03-05T01:55:50.640Z,9.85
2023-03-05T01:58:25.693Z,9.65
2023-03-05T02:00:53.700Z,9.93
2023-03-05T02:03:22.825Z,10.75
2023-03-05T02:05:49.607Z,10.60
2023-03-05T02:08:28.057Z,10.20
2023-03-05T02:10:59.657Z,9.88
2023-03-05T02:13:33.248Z,10.88
2023-03-05T02:16:05.548Z,9.05
2023-03-05T02:18:46.899Z,9.35
2023-03-05T02:23:54.537Z,9.90
2023-03-05T02:26:28.298Z,10.32
2023-03-05T02:29:01.420Z,9.85
2023-03-05T02:31:36.974Z,9.20
2023-03-05T02:34:12.479Z,9.70
2023-03-05T02:36:48.072Z,9.60
2023-03-05T02:39:20.965Z,9.45
2023-03-05T02:41:52.220Z,9.57
2023-03-05T02:44:23.143Z,9.57
2023-03-05T02:46:58.521Z,9.98
2023-03-05T02:49:25.420Z,8.95
2023-03-05T02:52:09.568Z,9.55
2023-03-05T02:54:44.876Z,9.95
2023-03-05T02:57:13.979Z,8.98
2023-03-05T02:59:47.835Z,9.50
2023-03-05T03:02:15.294Z,9.65
2023-03-05T03:08:00.169Z,9.38
2023-03-05T03:10:29.472Z,9.63
2023-03-05T03:13:04.058Z,10.38
2023-03-05T03:15:44.095Z,8.43
2023-03-05T03:18:11.547Z,9.50
2023-03-05T03:20:41.334Z,8.10
2023-03-05T03:23:08.038Z,9.05
2023-03-05T03:25:43.273Z,9.45
2023-03-05T03:28:12.682Z,9.88
2023-03-05T03:30:53.282Z,9.63
2023-03-05T03:33:31.906Z,9.95
2023-03-05T03:35:59.390Z,10.07
2023-03-05T03:38:26.200Z,9.65
2023-03-05T03:41:07.671Z,9.57
2023-03-05T03:46:26.406Z,9.48
2023-03-05T03:49:09.358Z,8.63
2023-03-05T03:51:35.982Z,9.55
2023-03-05T03:54:07.695Z,10.38
2023-03-05T03:56:48.012Z,10.10
2023-03-05T03:59:15.513Z,9.20
2023-03-05T04:01:51.547Z,9.65
2023-03-05T04:07:11.471Z,10.05
2023-03-05T04:09:39.621Z,9.85
2023-03-05T04:12:15.228Z,10.48
2023-03-05T04:14:54.248Z,9.10
2023-03-05T04:20:06.843Z,9.07
2023-03-05T04:22:52.801Z,9.73
2023-03-05T04:25:22.390Z,9.02
2023-03-05T04:27:59.137Z,9.00
2023-03-05T04:30:31.670Z,8.82
2023-03-05T04:32:58.476Z,9.90
2023-03-05T04:35:25.147Z,9.45
2023-03-05T04:37:51.735Z,8.93
2023-03-05T04:40:30.249Z,10.00
2023-03-05T04:43:04.828Z,11.93
2023-03-05T04:45:41.151Z,9.70
2023-03-05T04:48:08.370Z,9.82
2023-03-05T04:50:40.979Z,9.27
2023-03-05T04:53:07.560Z,8.75
2023-03-05T04:55:51.746Z,9.00
2023-03-05T04:58:19.279Z,8.70
2023-03-05T05:01:03.342Z,9.65
2023-03-05T05:03:32.560Z,9.00
2023-03-05T05:06:00.337Z,9.38
2023-03-05T05:08:30.512Z,10.23
2023-03-05T05:11:05.560Z,9.70
2023-03-05T05:13:37.054Z,9.73
2023-03-05T05:16:06.929Z,10.00
2023-03-05T05:18:42.719Z,10.07
2023-03-05T05:21:17.815Z,9.52
2023-03-05T05:24:01.165Z,10.00
2023-03-05T05:26:30.565Z,9.65
2023-03-05T05:29:05.937Z,10.23
2023-03-05T05:31:33.434Z,9.63
2023-03-05T05:34:03.198Z,9.30
2023-03-05T05:36:29.822Z,9.20
2023-03-05T05:38:57.182Z,9.88
2023-03-05T05:41:25.227Z,9.05
2023-03-05T05:43:51.804Z,9.75
2023-03-05T05:46:32.664Z,10.15
2023-03-05T05:48:59.934Z,9.60
2023-03-05T05:51:27.123Z,8.98
2023-03-05T05:54:00.988Z,9.85
2023-03-05T05:56:30.656Z,9.63
2023-03-05T05:58:57.636Z,8.68
2023-03-05T06:01:30.840Z,8.95
2023-03-05T06:04:05.524Z,9.75
2023-03-05T06:06:35.252Z,9.50
2023-03-05T06:09:01.887Z,8.98
2023-03-05T06:11:34.174Z,9.55
2023-03-05T06:14:01.116Z,9.50
2023-03-05T06:16:28.749Z,7.32
2023-03-05T06:19:03.949Z,10.00
2023-03-05T06:21:40.381Z,9.15
2023-03-05T06:24:08.119Z,9.20
2023-03-05T06:26:39.316Z,9.77
2023-03-05T06:29:06.237Z,9.67
2023-03-05T06:31:33.433Z,9.20
2023-03-05T06:34:03.788Z,9.90
2023-03-05T06:36:31.300Z,10.23
2023-03-05T06:39:01.149Z,10.45
2023-03-05T06:41:30.892Z,9.77
2023-03-05T06:44:02.846Z,10.07
2023-03-05T06:46:34.805Z,10.30
2023-03-05T06:49:07.156Z,13.98
2023-03-05T06:51:44.570Z,9.90
2023-03-05T06:54:23.380Z,11.23
2023-03-05T06:56:50.097Z,9.68
2023-03-05T06:59:22.674Z,10.27
2023-03-05T07:01:52.010Z,10.63
2023-03-05T07:04:40.178Z,9.90
2023-03-05T07:07:07.037Z,10.02
2023-03-05T07:09:36.810Z,11.10
2023-03-05T07:12:03.522Z,10.50
2023-03-05T07:14:33.176Z,9.93
2023-03-05T07:16:59.810Z,10.27
2023-03-05T07:19:32.952Z,10.18
2023-03-05T07:22:00.208Z,10.82
2023-03-05T07:24:32.449Z,10.27
2023-03-05T07:27:00.820Z,10.30
2023-03-05T07:29:28.941Z,10.70
2023-03-05T07:31:55.910Z,10.98
2023-03-05T07:34:27.528Z,10.35
2023-03-05T07:36:58.950Z,9.98
2023-03-05T07:39:32.306Z,10.90
2023-03-05T07:42:08.791Z,9.82
2023-03-05T07:44:40.408Z,10.48
2023-03-05T07:47:09.988Z,9.93
2023-03-05T07:49:36.824Z,9.57
2023-03-05T07:52:03.590Z,10.60
2023-03-05T07:54:30.239Z,10.68
2023-03-05T07:56:58.340Z,10.13
2023-03-05T07:59:36.854Z,10.23
2023-03-05T08:02:10.388Z,10.98
2023-03-05T08:04:40.358Z,11.57
2023-03-05T08:07:10.812Z,10.48
2023-03-05T08:09:40.121Z,10.48
2023-03-05T08:12:08.732Z,11.15
2023-03-05T08:14:41.350Z,10.25
2023-03-05T08:17:13.528Z,9.75
2023-03-05T08:19:43.025Z,10.88
2023-03-05T08:22:20.342Z,10.27
2023-03-05T08:24:56.148Z,11.07
2023-03-05T08:27:32.423Z,9.35
2023-03-05T08:29:59.081Z,9.95
2023-03-05T08:32:34.581Z,10.55
2023-03-05T08:35:08.880Z,10.07
2023-03-05T08:37:38.446Z,10.55
2023-03-05T08:40:19.932Z,10.15
2023-03-05T08:42:47.485Z,10.10
2023-03-05T08:45:23.397Z,9.55
2023-03-05T08:48:03.920Z,8.77
2023-03-05T08:50:37.998Z,9.77
2023-03-05T08:53:05.429Z,10.20
2023-03-05T08:55:35.314Z,9.25
2023-03-05T08:58:01.957Z,9.75
2023-03-05T09:00:32.000Z,8.52
2023-03-05T09:03:04.457Z,8.68
2023-03-05T09:05:44.826Z,9.20
2023-03-05T09:08:14.290Z,7.65
2023-03-05T09:10:44.412Z,8.30
2023-03-05T09:13:11.467Z,7.93
2023-03-05T09:15:39.121Z,8.10
2023-03-05T09:18:06.193Z,8.15
2023-03-05T09:20:39.000Z,7.90
2023-03-05T09:23:12.557Z,8.07
2023-03-05T09:25:41.021Z,7.35
2023-03-05T09:28:08.290Z,6.90
2023-03-05T09:30:38.688Z,7.60
2023-03-05T09:33:09.963Z,6.95
2023-03-05T09:35:42.696Z,7.00
2023-03-05T09:38:09.969Z,7.60
2023-03-05T09:40:42.226Z,7.57
2023-03-05T09:43:53.473Z,6.75
2023-03-05T09:46:50.686Z,7.75
2023-03-05T09:52:43.277Z,7.57
2023-03-05T09:55:24.660Z,7.82
2023-03-05T09:57:59.065Z,7.33
2023-03-05T10:00:27.800Z,6.82
2023-03-05T10:02:59.250Z,7.20
2023-03-05T10:05:48.074Z,7.60
2023-03-05T10:08:19.262Z,6.90
2023-03-05T10:10:59.188Z,7.10
2023-03-05T10:13:34.757Z,7.93
2023-03-05T10:16:20.516Z,7.57
2023-03-05T10:19:17.557Z,7.22
2023-03-05T10:22:13.395Z,14.15
2023-03-05T10:25:21.033Z,7.78
2023-03-05T10:28:00.525Z,8.05
2023-03-05T10:30:58.406Z,8.30
2023-03-05T10:33:28.463Z,8.35
2023-03-05T10:36:19.220Z,8.40
2023-03-05T10:39:04.574Z,9.13
2023-03-05T10:41:44.041Z,8.55
2023-03-05T10:44:28.781Z,8.43
2023-03-05T10:47:01.192Z,8.07
2023-03-05T10:49:38.539Z,7.00
2023-03-05T10:52:09.405Z,8.55
2023-03-05T10:54:39.286Z,8.00
2023-03-05T10:57:29.412Z,8.13
2023-03-05T11:00:18.279Z,9.20
2023-03-05T11:03:03.334Z,8.32
2023-03-05T11:05:44.455Z,7.80
2023-03-05T11:08:38.585Z,8.13
2023-03-05T11:11:21.982Z,8.18
2023-03-05T11:13:53.658Z,8.50
2023-03-05T11:16:48.352Z,8.88
2023-03-05T11:19:20.161Z,8.70
2023-03-05T11:22:25.684Z,8.73
2023-03-05T11:25:18.706Z,8.85
2023-03-05T11:27:55.904Z,8.82
2023-03-05T11:30:33.608Z,8.68
2023-03-05T11:33:22.626Z,8.88
2023-03-05T11:36:19.028Z,9.35
2023-03-05T11:39:07.312Z,9.25
2023-03-05T11:41:59.059Z,9.50
2023-03-05T11:44:50.836Z,10.00
2023-03-05T11:47:30.982Z,9.18
2023-03-05T11:50:15.992Z,9.02
2023-03-05T11:52:58.428Z,9.77
2023-03-05T11:55:43.453Z,10.20
2023-03-05T11:58:41.210Z,9.70
2023-03-05T12:01:45.979Z,9.55
2023-03-05T12:04:17.951Z,9.25
2023-03-05T12:06:51.171Z,10.57
2023-03-05T12:09:26.997Z,10.30
2023-03-05T12:12:28.138Z,10.52
2023-03-05T12:15:26.335Z,9.25
2023-03-05T12:18:30.674Z,8.45
2023-03-05T12:21:29.341Z,8.77
2023-03-05T12:23:58.634Z,9.45
2023-03-05T12:27:07.468Z,9.75
2023-03-05T12:29:39.113Z,9.40
2023-03-05T12:32:33.042Z,9.20
2023-03-05T12:35:33.395Z,8.65
2023-03-05T12:38:26.878Z,9.05
2023-03-05T12:41:28.311Z,8.98
2023-03-05T12:44:06.927Z,9.13
2023-03-05T12:47:10.935Z,8.95
2023-03-05T12:49:45.353Z,8.80
2023-03-05T12:52:27.350Z,9.50
2023-03-05T12:55:12.016Z,9.02
2023-03-05T12:57:45.072Z,9.05
2023-03-05T13:00:28.805Z,8.95
2023-03-05T13:03:09.552Z,9.70
2023-03-05T13:05:37.769Z,9.48
2023-03-05T13:08:27.196Z,9.10
2023-03-05T13:11:06.292Z,8.77
2023-03-05T13:13:41.662Z,8.98
2023-03-05T13:16:40.195Z,8.52
2023-03-05T13:19:16.582Z,8.00
2023-03-05T13:21:51.803Z,8.30
2023-03-05T13:24:23.725Z,7.78
2023-03-05T13:26:57.101Z,8.70
2023-03-05T13:29:28.154Z,8.13
2023-03-05T13:34:46.699Z,7.55
2023-03-05T13:37:33.432Z,6.97
2023-03-05T13:40:18.954Z,7.05
2023-03-05T13:42:45.654Z,6.78
2023-03-05T13:45:25.251Z,7.95
2023-03-05T13:48:03.521Z,7.03
2023-03-05T13:50:36.105Z,6.70
2023-03-05T13:53:22.898Z,7.65
2023-03-05T13:55:54.692Z,7.18
2023-03-05T13:58:40.222Z,7.28
2023-03-05T14:01:26.855Z,7.38
2023-03-05T14:03:55.614Z,6.50
2023-03-05T14:06:23.959Z,7.30
2023-03-05T14:09:12.437Z,7.47
2023-03-05T14:11:41.869Z,6.95
2023-03-05T14:14:27.034Z,7.97
2023-03-05T14:16:58.181Z,8.07
2023-03-05T14:22:07.673Z,6.90
2023-03-05T14:24:36.572Z,6.72
2023-03-05T14:27:27.176Z,7.07
2023-03-05T14:29:58.342Z,6.28
2023-03-05T14:32:37.083Z,7.10
2023-03-05T14:35:30.611Z,6.40
2023-03-05T14:38:10.052Z,6.75
2023-03-05T14:40:45.176Z,6.32
2023-03-05T14:43:14.889Z,6.68
2023-03-05T14:45:45.699Z,7.55
2023-03-05T14:48:18.074Z,6.07
2023-03-05T14:50:45.681Z,5.97
2023-03-05T14:53:22.122Z,6.68
2023-03-05T14:55:51.729Z,6.35
2023-03-05T14:58:27.087Z,6.00
2023-03-05T15:00:54.766Z,6.30
2023-03-05T15:03:25.305Z,7.68
2023-03-05T15:05:55.067Z,5.88
2023-03-05T15:08:25.070Z,5.75
2023-03-05T15:11:00.041Z,5.47
2023-03-05T15:13:27.526Z,6.03
2023-03-05T15:15:54.795Z,5.50
2023-03-05T15:18:30.213Z,5.70
2023-03-05T15:21:12.751Z,5.15
2023-03-05T15:23:45.881Z,5.78
2023-03-05T15:26:17.560Z,4.85
2023-03-05T15:28:47.569Z,4.90
2023-03-05T15:31:16.369Z,4.95
2023-03-05T15:33:50.775Z,5.30
2023-03-05T15:36:21.882Z,5.15
2023-03-05T15:39:03.798Z,5.07
2023-03-05T15:41:30.504Z,4.93
2023-03-05T15:44:02.752Z,4.75
2023-03-05T15:46:35.694Z,4.80
2023-03-05T15:49:05.757Z,4.95
2023-03-05T15:51:32.529Z,4.63
2023-03-05T15:54:01.797Z,4.50
2023-03-05T15:56:31.358Z,4.60
2023-03-05T15:58:58.145Z,4.22
2023-03-05T16:01:27.439Z,4.97
2023-03-05T16:03:58.179Z,5.22
2023-03-05T16:06:29.313Z,5.43
2023-03-05T16:09:18.760Z,5.43
2023-03-05T16:11:53.667Z,6.22
2023-03-05T16:14:25.817Z,5.43
2023-03-05T16:17:06.962Z,6.20
2023-03-05T16:19:40.718Z,6.78
2023-03-05T16:22:10.595Z,7.97
2023-03-05T16:24:38.333Z,10.32
2023-03-05T16:27:06.329Z,9.45
2023-03-05T16:29:33.122Z,11.30
2023-03-05T16:32:02.491Z,12.77
2023-03-05T16:34:38.342Z,14.07
2023-03-05T16:37:08.710Z,12.68
2023-03-05T16:39:35.408Z,12.10
2023-03-05T16:42:02.025Z,13.10
2023-03-05T16:45:46.144Z,13.27
2023-03-05T16:47:27.197Z,13.25
2023-03-05T16:50:00.828Z,13.48
2023-03-05T16:52:31.137Z,13.85
2023-03-05T16:54:58.395Z,12.55
2023-03-05T16:57:27.622Z,13.90
2023-03-05T17:00:01.600Z,12.48
2023-03-05T17:02:28.513Z,13.10
2023-03-05T17:04:55.359Z,12.13
2023-03-05T17:07:22.033Z,11.73
2023-03-05T17:09:48.668Z,11.13
2023-03-05T17:12:15.687Z,9.38
2023-03-05T17:14:45.607Z,9.85
2023-03-05T17:17:16.988Z,8.82
2023-03-05T17:19:46.465Z,9.30
2023-03-05T17:22:16.290Z,9.20
2023-03-05T17:24:42.960Z,8.82
2023-03-05T17:27:10.148Z,8.77
2023-03-05T17:29:36.779Z,9.55
2023-03-05T17:32:07.136Z,8.85
2023-03-05T17:34:37.590Z,9.13
2023-03-05T17:37:06.064Z,8.57
2023-03-05T17:39:40.388Z,9.10
2023-03-05T17:42:07.008Z,8.68
2023-03-05T17:44:33.665Z,8.77
2023-03-05T17:47:03.348Z,8.85
2023-03-05T17:49:30.236Z,8.80
2023-03-05T17:52:11.868Z,8.70
2023-03-05T17:54:39.580Z,8.70
2023-03-05T17:57:20.435Z,8.65
2023-03-05T17:59:49.879Z,8.77
2023-03-05T18:02:19.429Z,9.82
2023-03-05T18:04:59.427Z,8.85
2023-03-05T18:07:28.757Z,8.80
2023-03-05T18:09:57.797Z,8.82
2023-03-05T18:12:26.715Z,8.75
2023-03-05T18:14:54.415Z,8.65
2023-03-05T18:17:24.462Z,8.70
2023-03-05T18:19:56.638Z,9.15
2023-03-05T18:22:23.295Z,8.73
2023-03-05T18:24:55.173Z,8.98
2023-03-05T18:27:25.319Z,8.82
2023-03-05T18:30:04.659Z,8.73
2023-03-05T18:32:35.421Z,9.88
2023-03-05T18:35:09.423Z,9.63
2023-03-05T18:37:36.070Z,9.88
2023-03-05T18:40:07.285Z,10.30
2023-03-05T18:42:41.115Z,9.75
2023-03-05T18:45:18.738Z,9.60
2023-03-05T18:47:47.689Z,9.63
2023-03-05T18:50:17.792Z,9.32
2023-03-05T18:52:45.560Z,9.93
2023-03-05T18:55:28.597Z,9.95
2023-03-05T18:58:02.408Z,10.00
2023-03-05T19:00:45.128Z,10.50
2023-03-05T19:03:21.795Z,10.05
2023-03-05T19:05:49.414Z,9.68
2023-03-05T19:08:16.015Z,10.35
2023-03-05T19:10:50.734Z,9.23
2023-03-05T19:13:41.998Z,9.98
2023-03-05T19:16:17.611Z,10.05
2023-03-05T19:19:37.472Z,11.43
2023-03-05T19:22:10.287Z,9.82
2023-03-05T19:24:38.122Z,10.27
2023-03-05T19:27:08.712Z,10.93
2023-03-05T19:30:02.498Z,10.90
2023-03-05T19:32:35.198Z,10.10
2023-03-05T19:35:02.329Z,10.32
2023-03-05T19:37:29.003Z,11.63
2023-03-05T19:39:55.698Z,10.88
2023-03-05T19:42:22.312Z,11.00
2023-03-05T19:44:49.312Z,10.27
2023-03-05T19:47:18.554Z,10.60
2023-03-05T19:49:45.130Z,9.65
2023-03-05T19:52:11.755Z,11.05
2023-03-05T19:54:45.552Z,9.95
2023-03-05T19:57:14.944Z,10.85
2023-03-05T19:59:56.045Z,10.38
2023-03-05T20:02:22.720Z,11.52
2023-03-05T20:04:54.942Z,10.40
2023-03-05T20:07:21.664Z,10.75
2023-03-05T20:09:59.242Z,10.55
2023-03-05T20:12:31.010Z,10.05
2023-03-05T20:14:58.553Z,10.23
2023-03-05T20:17:25.176Z,10.43
2023-03-05T20:19:54.694Z,11.57
2023-03-05T20:22:21.312Z,10.93
2023-03-05T20:24:53.985Z,12.02
2023-03-05T20:27:20.641Z,11.38
2023-03-05T20:29:47.276Z,10.63
2023-03-05T20:32:16.554Z,11.38
2023-03-05T20:34:51.358Z,10.75
2023-03-05T20:37:28.183Z,10.98
2023-03-05T20:39:54.798Z,11.20
2023-03-05T20:42:23.469Z,10.80
2023-03-05T20:44:50.210Z,11.60
2023-03-05T20:47:37.743Z,10.77
2023-03-05T20:50:09.054Z,11.40
2023-03-05T20:52:39.013Z,11.13
2023-03-05T20:55:09.919Z,11.27
2023-03-05T20:57:40.327Z,11.35
2023-03-05T21:00:08.592Z,11.18
2023-03-05T21:02:35.229Z,11.07
2023-03-05T21:05:05.677Z,10.90
2023-03-05T21:07:49.136Z,11.23
2023-03-05T21:10:16.156Z,9.65
2023-03-05T21:12:44.021Z,12.05
2023-03-05T21:15:25.355Z,10.93
2023-03-05T21:17:58.614Z,11.30
2023-03-05T21:20:33.221Z,10.68
2023-03-05T21:22:59.966Z,9.57
2023-03-05T21:25:31.871Z,10.18
2023-03-05T21:28:07.187Z,10.02
2023-03-05T21:30:53.246Z,8.73
2023-03-05T21:33:30.522Z,9.68
2023-03-05T21:35:57.399Z,9.40
2023-03-05T21:38:27.907Z,9.18
2023-03-05T21:41:04.278Z,9.48
2023-03-05T21:43:34.695Z,9.60
2023-03-05T21:46:12.381Z,9.27
2023-03-05T21:48:42.659Z,8.88
2023-03-05T21:51:28.672Z,8.75
2023-03-05T21:53:58.564Z,8.23
2023-03-05T21:56:29.813Z,8.40
2023-03-05T21:59:00.751Z,9.07
2023-03-05T22:01:32.616Z,9.02
2023-03-05T22:03:59.296Z,8.57
2023-03-05T22:06:31.541Z,7.90
2023-03-05T22:09:13.305Z,8.98
2023-03-05T22:11:42.080Z,8.50
2023-03-05T22:14:21.220Z,8.75
2023-03-05T22:17:05.703Z,8.93
2023-03-05T22:19:57.620Z,9.52
2023-03-05T22:22:38.198Z,8.68
2023-03-05T22:27:58.386Z,8.95
2023-03-05T22:30:39.563Z,8.23
2023-03-05T22:33:09.189Z,8.93
2023-03-05T22:35:38.260Z,8.50
2023-03-05T22:38:11.796Z,9.40
2023-03-05T22:40:46.848Z,8.82
2023-03-05T22:43:17.078Z,9.13
2023-03-05T22:45:43.798Z,8.77
2023-03-05T22:48:10.506Z,8.60
2023-03-05T22:50:38.483Z,9.02
2023-03-05T22:53:05.205Z,8.55
2023-03-05T22:58:16.789Z,8.75
2023-03-05T23:00:46.292Z,9.27
2023-03-05T23:03:16.537Z,8.07
2023-03-05T23:05:43.186Z,8.23
2023-03-05T23:08:32.737Z,8.13
2023-03-05T23:11:00.048Z,9.00
2023-03-05T23:13:41.865Z,8.23
2023-03-05T23:16:24.175Z,8.15
2023-03-05T23:18:50.815Z,8.38
2023-03-05T23:21:17.601Z,9.05
2023-03-05T23:23:47.422Z,8.05
2023-03-05T23:26:25.266Z,8.43
2023-03-05T23:29:00.589Z,8.23
2023-03-05T23:31:41.502Z,9.18
2023-03-05T23:34:11.574Z,7.82
2023-03-05T23:36:40.089Z,9.20
2023-03-05T23:39:12.252Z,9.00
2023-03-05T23:41:38.870Z,8.70
2023-03-05T23:44:18.686Z,8.93
2023-03-05T23:46:46.622Z,9.48
2023-03-05T23:49:18.897Z,9.32
2023-03-05T23:51:49.243Z,9.77
2023-03-05T23:54:21.641Z,8.05
2023-03-05T23:56:59.026Z,9.25
2023-03-05T23:59:36.689Z,9.30
